createdAt,value
2023-11-07T00:01:29.121Z,5.10
2023-11-07T00:04:01.468Z,5.01
2023-11-07T00:06:27.953Z,4.95
2023-11-07T00:08:54.432Z,4.87
2023-11-07T00:11:20.883Z,4.83
2023-11-07T00:13:52.369Z,4.84
2023-11-07T00:16:18.848Z,4.91
2023-11-07T00:18:46.502Z,5.11
2023-11-07T00:21:13.045Z,5.39
2023-11-07T00:23:43.554Z,5.37
2023-11-07T00:26:09.927Z,5.24
2023-11-07T00:28:37.899Z,5.23
2023-11-07T00:31:04.405Z,5.19
2023-11-07T00:33:30.941Z,5.22
2023-11-07T00:35:57.446Z,5.19
2023-11-07T00:38:23.829Z,5.29
2023-11-07T00:40:50.405Z,5.41
2023-11-07T00:43:16.897Z,5.40
2023-11-07T00:45:43.244Z,5.38
2023-11-07T00:48:09.764Z,5.50
2023-11-07T00:50:36.589Z,5.48
2023-11-07T00:53:03.182Z,5.35
2023-11-07T00:55:41.972Z,5.39
2023-11-07T00:58:08.324Z,5.44
2023-11-07T01:00:34.889Z,5.46
2023-11-07T01:03:01.411Z,5.48
2023-11-07T01:05:28.264Z,5.50
2023-11-07T01:07:54.913Z,5.44
2023-11-07T01:10:21.324Z,5.37
2023-11-07T01:12:47.797Z,5.31
2023-11-07T01:15:14.208Z,5.25
2023-11-07T01:17:40.795Z,5.17
2023-11-07T01:20:07.823Z,5.09
2023-11-07T01:22:34.304Z,5.06
2023-11-07T01:25:00.680Z,5.02
2023-11-07T01:27:27.146Z,4.91
2023-11-07T01:29:53.526Z,4.82
2023-11-07T01:32:20.852Z,4.71
2023-11-07T01:34:47.227Z,4.69
2023-11-07T01:37:13.615Z,4.62
2023-11-07T01:39:40.051Z,4.59
2023-11-07T01:42:09.605Z,4.58
2023-11-07T01:44:36.047Z,4.57
2023-11-07T01:47:03.903Z,4.62
2023-11-07T01:49:30.419Z,4.58
2023-11-07T01:51:58.867Z,4.61
2023-11-07T01:54:27.065Z,4.65
2023-11-07T01:56:58.132Z,4.70
2023-11-07T01:59:25.142Z,4.73
2023-11-07T02:01:53.364Z,4.80
2023-11-07T02:04:20.842Z,5.16
2023-11-07T02:06:47.264Z,5.23
2023-11-07T02:09:13.703Z,4.97
2023-11-07T02:11:40.231Z,4.72
2023-11-07T02:14:06.990Z,4.58
2023-11-07T02:16:33.401Z,4.54
2023-11-07T02:18:59.889Z,4.46
2023-11-07T02:21:30.650Z,4.49
2023-11-07T02:23:57.111Z,4.40
2023-11-07T02:26:25.611Z,4.26
2023-11-07T02:28:52.039Z,4.41
2023-11-07T02:31:18.791Z,4.16
2023-11-07T02:33:47.459Z,4.16
2023-11-07T02:36:13.879Z,3.99
2023-11-07T02:38:40.249Z,4.09
2023-11-07T02:41:06.768Z,3.92
2023-11-07T02:43:33.797Z,3.84
2023-11-07T02:46:00.153Z,3.84
2023-11-07T02:48:26.594Z,3.86
2023-11-07T02:50:53.758Z,3.80
2023-11-07T02:53:20.198Z,3.76
2023-11-07T02:55:47.404Z,3.76
2023-11-07T02:58:15.030Z,3.76
2023-11-07T03:00:45.925Z,3.74
2023-11-07T03:03:12.424Z,3.76
2023-11-07T03:05:44.903Z,3.77
2023-11-07T03:08:26.757Z,3.79
2023-11-07T03:10:53.314Z,3.87
2023-11-07T03:13:21.252Z,3.95
2023-11-07T03:15:48.498Z,4.03
2023-11-07T03:18:15.054Z,4.11
2023-11-07T03:20:41.895Z,4.26
2023-11-07T03:23:12.478Z,4.46
2023-11-07T03:25:38.819Z,4.57
2023-11-07T03:28:05.548Z,4.62
2023-11-07T03:30:31.951Z,4.57
2023-11-07T03:32:58.809Z,4.55
2023-11-07T03:35:29.188Z,4.62
2023-11-07T03:37:57.700Z,4.59
2023-11-07T03:40:24.056Z,4.57
2023-11-07T03:42:50.422Z,4.61
2023-11-07T03:45:16.825Z,4.62
2023-11-07T03:48:00.532Z,4.56
2023-11-07T03:50:27.126Z,4.51
2023-11-07T03:52:53.532Z,4.46
2023-11-07T03:55:19.863Z,4.42
2023-11-07T03:57:46.286Z,4.25
2023-11-07T04:00:12.844Z,4.34
2023-11-07T04:02:39.373Z,4.27
2023-11-07T04:05:06.070Z,4.20
2023-11-07T04:07:32.786Z,4.22
2023-11-07T04:10:00.241Z,4.19
2023-11-07T04:12:26.661Z,4.16
2023-11-07T04:14:55.719Z,4.06
2023-11-07T04:17:22.810Z,3.95
2023-11-07T04:19:49.293Z,3.86
2023-11-07T04:22:16.791Z,3.80
2023-11-07T04:24:45.057Z,3.69
2023-11-07T04:27:11.700Z,3.65
2023-11-07T04:29:38.235Z,3.69
2023-11-07T04:32:05.938Z,3.63
2023-11-07T04:34:32.661Z,3.72
2023-11-07T04:36:59.882Z,3.76
2023-11-07T04:39:27.298Z,3.77
2023-11-07T04:41:54.523Z,3.84
2023-11-07T04:44:21.301Z,3.81
2023-11-07T04:46:48.382Z,3.88
2023-11-07T04:49:15.369Z,4.16
2023-11-07T04:51:41.888Z,4.14
2023-11-07T04:54:08.382Z,4.15
2023-11-07T04:56:34.786Z,4.19
2023-11-07T04:59:01.313Z,4.37
2023-11-07T05:01:27.689Z,4.40
2023-11-07T05:03:54.981Z,4.47
2023-11-07T05:06:21.680Z,4.41
2023-11-07T05:08:48.314Z,4.43
2023-11-07T05:11:14.747Z,4.51
2023-11-07T05:13:41.095Z,4.49
2023-11-07T05:16:07.647Z,4.58
2023-11-07T05:18:34.215Z,4.57
2023-11-07T05:21:01.759Z,4.56
2023-11-07T05:23:28.139Z,4.54
2023-11-07T05:25:55.531Z,4.54
2023-11-07T05:28:22.013Z,4.59
2023-11-07T05:30:48.388Z,4.60
2023-11-07T05:33:17.047Z,4.65
2023-11-07T05:35:45.363Z,4.66
2023-11-07T05:38:12.144Z,4.67
2023-11-07T05:40:38.513Z,4.66
2023-11-07T05:43:04.866Z,4.70
2023-11-07T05:45:32.102Z,4.70
2023-11-07T05:47:58.747Z,4.70
2023-11-07T05:50:26.858Z,4.72
2023-11-07T05:52:53.730Z,4.71
2023-11-07T05:55:20.178Z,4.74
2023-11-07T05:57:46.589Z,4.79
2023-11-07T06:00:13.783Z,4.80
2023-11-07T06:02:40.796Z,4.82
2023-11-07T06:05:10.627Z,4.83
2023-11-07T06:07:37.096Z,4.84
2023-11-07T06:10:04.359Z,4.91
2023-11-07T06:12:30.775Z,4.93
2023-11-07T06:14:57.153Z,4.92
2023-11-07T06:17:23.590Z,4.98
2023-11-07T06:19:50.266Z,5.05
2023-11-07T06:22:16.881Z,5.22
2023-11-07T06:24:47.547Z,5.16
2023-11-07T06:27:14.051Z,5.12
2023-11-07T06:29:49.171Z,5.04
2023-11-07T06:32:15.952Z,4.53
2023-11-07T06:34:42.515Z,5.10
2023-11-07T06:37:09.124Z,5.05
2023-11-07T06:39:36.249Z,4.99
2023-11-07T06:42:02.765Z,4.97
2023-11-07T06:44:29.347Z,4.95
2023-11-07T06:46:56.508Z,4.88
2023-11-07T06:49:23.201Z,4.77
2023-11-07T06:51:49.657Z,4.67
2023-11-07T06:54:17.173Z,4.60
2023-11-07T06:56:43.599Z,4.56
2023-11-07T06:59:10.813Z,4.57
2023-11-07T07:01:37.562Z,4.50
2023-11-07T07:04:04.516Z,4.46
2023-11-07T07:06:33.197Z,4.55
2023-11-07T07:09:09.443Z,4.56
2023-11-07T07:11:41.270Z,4.55
2023-11-07T07:14:07.636Z,4.59
2023-11-07T07:16:34.036Z,4.62
2023-11-07T07:19:00.546Z,4.67
2023-11-07T07:21:27.014Z,4.71
2023-11-07T07:23:53.714Z,4.76
2023-11-07T07:26:23.340Z,4.82
2023-11-07T07:28:53.548Z,4.90
2023-11-07T07:31:28.601Z,4.98
2023-11-07T07:33:57.615Z,5.06
2023-11-07T07:36:24.236Z,5.14
2023-11-07T07:38:53.584Z,5.19
2023-11-07T07:41:20.006Z,5.21
2023-11-07T07:43:47.588Z,5.34
2023-11-07T07:46:14.133Z,5.52
2023-11-07T07:48:40.592Z,5.61
2023-11-07T07:51:07.750Z,5.63
2023-11-07T07:53:35.505Z,5.65
2023-11-07T07:56:02.064Z,5.78
2023-11-07T07:58:28.464Z,5.82
2023-11-07T08:00:54.823Z,5.78
2023-11-07T08:03:21.891Z,6.00
2023-11-07T08:05:48.678Z,6.04
2023-11-07T08:08:16.153Z,6.20
2023-11-07T08:10:42.559Z,6.16
2023-11-07T08:13:11.305Z,6.25
2023-11-07T08:15:38.061Z,6.30
2023-11-07T08:18:08.671Z,6.52
2023-11-07T08:20:36.128Z,6.46
2023-11-07T08:23:05.925Z,6.44
2023-11-07T08:25:33.422Z,6.41
2023-11-07T08:27:59.828Z,6.14
2023-11-07T08:30:26.239Z,6.53
2023-11-07T08:32:53.237Z,6.53
2023-11-07T08:35:20.100Z,6.48
2023-11-07T08:37:51.195Z,6.52
2023-11-07T08:40:19.972Z,6.52
2023-11-07T08:42:46.693Z,6.55
2023-11-07T08:45:16.821Z,6.60
2023-11-07T08:47:44.808Z,6.98
2023-11-07T08:50:14.438Z,6.95
2023-11-07T08:52:41.544Z,6.97
2023-11-07T08:55:09.561Z,7.01
2023-11-07T08:57:40.073Z,7.27
2023-11-07T09:00:13.488Z,7.19
2023-11-07T09:02:40.619Z,7.07
2023-11-07T09:05:07.949Z,7.08
2023-11-07T09:07:38.948Z,7.14
2023-11-07T09:10:06.092Z,7.09
2023-11-07T09:12:32.500Z,7.21
2023-11-07T09:15:00.397Z,7.22
2023-11-07T09:17:28.302Z,7.22
2023-11-07T09:19:55.557Z,7.23
2023-11-07T09:22:23.790Z,7.34
2023-11-07T09:24:50.727Z,7.26
2023-11-07T09:27:18.106Z,7.22
2023-11-07T09:29:45.218Z,7.47
2023-11-07T09:32:11.684Z,7.36
2023-11-07T09:34:42.398Z,7.29
2023-11-07T09:37:08.922Z,7.45
2023-11-07T09:39:35.636Z,7.40
2023-11-07T09:42:02.472Z,7.37
2023-11-07T09:44:29.004Z,7.44
2023-11-07T09:46:56.938Z,7.60
2023-11-07T09:49:23.850Z,7.74
2023-11-07T09:51:51.481Z,7.65
2023-11-07T09:54:20.610Z,7.57
2023-11-07T09:56:48.282Z,7.53
2023-11-07T09:59:16.505Z,7.53
2023-11-07T10:01:44.183Z,7.47
2023-11-07T10:04:10.840Z,7.43
2023-11-07T10:06:37.997Z,7.30
2023-11-07T10:09:05.717Z,7.44
2023-11-07T10:11:44.152Z,7.73
2023-11-07T10:14:10.500Z,8.13
2023-11-07T10:16:37.568Z,8.23
2023-11-07T10:19:06.077Z,8.42
2023-11-07T10:21:33.292Z,8.35
2023-11-07T10:24:00.133Z,8.60
2023-11-07T10:26:26.530Z,8.85
2023-11-07T10:29:18.019Z,9.02
2023-11-07T10:31:58.071Z,8.74
2023-11-07T10:34:26.863Z,8.88
2023-11-07T10:36:53.594Z,9.03
2023-11-07T10:39:22.889Z,8.84
2023-11-07T10:41:49.369Z,8.82
2023-11-07T10:44:16.454Z,8.81
2023-11-07T10:46:44.475Z,8.86
2023-11-07T10:49:12.602Z,8.83
2023-11-07T10:51:38.993Z,8.85
2023-11-07T10:54:06.100Z,8.70
2023-11-07T10:56:33.620Z,8.63
2023-11-07T10:59:01.182Z,8.55
2023-11-07T11:01:33.316Z,8.64
2023-11-07T11:04:01.169Z,8.19
2023-11-07T11:06:28.912Z,7.88
2023-11-07T11:08:57.154Z,8.01
2023-11-07T11:11:26.490Z,8.03
2023-11-07T11:13:53.890Z,8.13
2023-11-07T11:16:21.457Z,8.17
2023-11-07T11:18:57.388Z,8.12
2023-11-07T11:21:29.041Z,8.27
2023-11-07T11:24:15.746Z,8.48
2023-11-07T11:26:50.715Z,8.63
2023-11-07T11:29:29.955Z,8.98
2023-11-07T11:31:57.712Z,9.09
2023-11-07T11:34:29.473Z,9.24
2023-11-07T11:36:59.487Z,9.48
2023-11-07T11:39:28.655Z,9.56
2023-11-07T11:41:58.901Z,9.52
2023-11-07T11:44:25.932Z,10.05
2023-11-07T11:46:58.403Z,10.06
2023-11-07T11:49:24.946Z,9.87
2023-11-07T11:51:55.395Z,9.80
2023-11-07T11:54:26.960Z,9.63
2023-11-07T11:56:54.766Z,9.65
2023-11-07T11:59:41.143Z,9.64
2023-11-07T12:02:08.320Z,9.72
2023-11-07T12:04:38.424Z,9.90
2023-11-07T12:07:08.792Z,10.36
2023-11-07T12:09:36.064Z,10.27
2023-11-07T12:12:03.694Z,9.81
2023-11-07T12:14:30.128Z,9.80
2023-11-07T12:16:57.038Z,9.59
2023-11-07T12:19:23.901Z,9.49
2023-11-07T12:21:54.150Z,9.12
2023-11-07T12:24:21.376Z,8.95
2023-11-07T12:26:48.901Z,8.83
2023-11-07T12:29:15.770Z,8.98
2023-11-07T12:31:42.226Z,8.97
2023-11-07T12:34:08.827Z,8.82
2023-11-07T12:36:36.818Z,8.64
2023-11-07T12:39:04.917Z,8.89
2023-11-07T12:41:34.303Z,9.02
2023-11-07T12:44:10.995Z,8.88
2023-11-07T12:46:39.867Z,8.63
2023-11-07T12:49:06.311Z,8.69
2023-11-07T12:51:36.864Z,8.76
2023-11-07T12:54:05.304Z,8.63
2023-11-07T12:56:40.691Z,8.56
2023-11-07T12:59:13.912Z,8.52
2023-11-07T13:01:47.246Z,8.48
2023-11-07T13:04:15.050Z,8.57
2023-11-07T13:07:13.950Z,8.52
2023-11-07T13:09:40.408Z,8.43
2023-11-07T13:12:08.107Z,8.51
2023-11-07T13:14:34.804Z,8.63
2023-11-07T13:17:04.834Z,8.42
2023-11-07T13:19:36.039Z,8.35
2023-11-07T13:22:02.841Z,8.39
2023-11-07T13:24:29.251Z,8.46
2023-11-07T13:26:55.671Z,8.53
2023-11-07T13:29:22.354Z,8.56
2023-11-07T13:31:50.329Z,8.48
2023-11-07T13:34:18.183Z,8.59
2023-11-07T13:36:44.998Z,8.61
2023-11-07T13:39:24.222Z,8.58
2023-11-07T13:41:50.948Z,8.87
2023-11-07T13:44:17.357Z,9.18
2023-11-07T13:46:43.861Z,9.20
2023-11-07T13:49:10.611Z,9.52
2023-11-07T13:51:39.870Z,9.61
2023-11-07T13:54:09.315Z,9.59
2023-11-07T13:56:35.876Z,9.79
2023-11-07T13:59:09.529Z,9.56
2023-11-07T14:01:38.377Z,9.40
2023-11-07T14:04:06.415Z,9.38
2023-11-07T14:06:33.533Z,9.34
2023-11-07T14:09:00.142Z,9.47
2023-11-07T14:11:26.619Z,9.55
2023-11-07T14:13:53.049Z,9.33
2023-11-07T14:16:19.789Z,9.34
2023-11-07T14:18:49.846Z,9.31
2023-11-07T14:21:19.869Z,9.30
2023-11-07T14:23:47.697Z,8.57
2023-11-07T14:26:14.756Z,9.06
2023-11-07T14:28:54.719Z,9.09
2023-11-07T14:31:30.928Z,8.99
2023-11-07T14:33:59.548Z,8.79
2023-11-07T14:36:27.907Z,8.92
2023-11-07T14:38:56.400Z,8.62
2023-11-07T14:41:28.279Z,8.59
2023-11-07T14:43:54.694Z,8.61
2023-11-07T14:46:31.327Z,8.47
2023-11-07T14:48:57.994Z,8.37
2023-11-07T14:51:28.624Z,8.39
2023-11-07T14:53:58.038Z,8.38
2023-11-07T14:56:30.668Z,8.23
2023-11-07T14:59:00.904Z,8.37
2023-11-07T15:01:27.950Z,8.22
2023-11-07T15:03:57.640Z,8.12
2023-11-07T15:06:24.168Z,8.19
2023-11-07T15:08:50.818Z,8.19
2023-11-07T15:11:17.422Z,8.20
2023-11-07T15:14:00.937Z,7.99
2023-11-07T15:16:29.305Z,7.87
2023-11-07T15:18:57.316Z,7.56
2023-11-07T15:21:24.798Z,7.43
2023-11-07T15:23:52.009Z,7.42
2023-11-07T15:26:19.550Z,7.47
2023-11-07T15:28:46.076Z,7.58
2023-11-07T15:31:14.269Z,7.41
2023-11-07T15:33:41.045Z,7.21
2023-11-07T15:36:10.907Z,7.17
2023-11-07T15:38:54.788Z,6.93
2023-11-07T15:41:22.420Z,6.76
2023-11-07T15:43:50.196Z,6.70
2023-11-07T15:46:17.666Z,6.75
2023-11-07T15:48:44.159Z,6.57
2023-11-07T15:51:11.701Z,6.66
2023-11-07T15:53:43.572Z,6.39
2023-11-07T15:56:17.898Z,6.43
2023-11-07T15:58:50.369Z,6.45
2023-11-07T16:01:16.735Z,6.28
2023-11-07T16:03:44.431Z,6.30
2023-11-07T16:06:16.892Z,6.32
2023-11-07T16:08:43.513Z,6.18
2023-11-07T16:11:11.046Z,6.15
2023-11-07T16:13:38.729Z,6.39
2023-11-07T16:16:09.886Z,6.16
2023-11-07T16:18:45.623Z,6.18
2023-11-07T16:21:17.362Z,6.37
2023-11-07T16:23:47.736Z,6.21
2023-11-07T16:26:14.209Z,6.30
2023-11-07T16:28:44.257Z,6.15
2023-11-07T16:31:11.115Z,6.23
2023-11-07T16:33:37.709Z,6.25
2023-11-07T16:36:04.728Z,5.75
2023-11-07T16:38:31.330Z,5.62
2023-11-07T16:40:57.948Z,5.60
2023-11-07T16:43:25.438Z,5.56
2023-11-07T16:45:54.010Z,5.66
2023-11-07T16:48:23.402Z,5.78
2023-11-07T16:50:49.848Z,5.64
2023-11-07T16:53:28.568Z,5.63
2023-11-07T16:55:57.954Z,5.64
2023-11-07T16:58:27.439Z,5.52
2023-11-07T17:00:54.841Z,5.54
2023-11-07T17:03:32.458Z,5.52
2023-11-07T17:05:59.094Z,5.43
2023-11-07T17:08:31.849Z,5.55
2023-11-07T17:11:11.800Z,5.43
2023-11-07T17:13:38.278Z,5.55
2023-11-07T17:16:04.920Z,5.63
2023-11-07T17:18:32.766Z,5.66
2023-11-07T17:20:59.291Z,5.74
2023-11-07T17:23:26.170Z,5.65
2023-11-07T17:25:53.008Z,5.77
2023-11-07T17:28:19.628Z,5.70
2023-11-07T17:30:46.580Z,5.77
2023-11-07T17:33:13.050Z,5.79
2023-11-07T17:35:43.017Z,5.84
2023-11-07T17:38:10.753Z,5.86
2023-11-07T17:40:37.363Z,5.85
2023-11-07T17:43:04.125Z,5.67
2023-11-07T17:45:30.722Z,5.78
2023-11-07T17:47:57.553Z,6.09
2023-11-07T17:50:24.159Z,6.07
2023-11-07T17:52:50.641Z,5.79
2023-11-07T17:55:19.675Z,5.92
2023-11-07T17:57:46.297Z,5.90
2023-11-07T18:00:13.271Z,5.80
2023-11-07T18:02:41.111Z,5.91
2023-11-07T18:05:07.777Z,5.69
2023-11-07T18:07:34.533Z,5.79
2023-11-07T18:10:01.932Z,5.24
2023-11-07T18:12:28.360Z,5.81
2023-11-07T18:14:55.297Z,5.87
2023-11-07T18:17:21.719Z,5.78
2023-11-07T18:19:49.261Z,5.81
2023-11-07T18:22:16.024Z,5.84
2023-11-07T18:24:42.490Z,5.81
2023-11-07T18:27:08.959Z,5.86
2023-11-07T18:29:37.545Z,5.17
2023-11-07T18:32:07.952Z,5.74
2023-11-07T18:34:34.695Z,5.74
2023-11-07T18:37:02.955Z,5.59
2023-11-07T18:39:34.570Z,5.56
2023-11-07T18:42:01.159Z,5.43
2023-11-07T18:44:35.450Z,5.57
2023-11-07T18:47:03.089Z,5.69
2023-11-07T18:49:29.608Z,5.50
2023-11-07T18:51:56.384Z,5.36
2023-11-07T18:54:22.799Z,5.32
2023-11-07T18:56:49.364Z,5.41
2023-11-07T18:59:27.754Z,5.37
2023-11-07T19:02:00.601Z,5.54
2023-11-07T19:04:27.053Z,5.36
2023-11-07T19:06:53.402Z,5.57
2023-11-07T19:09:20.775Z,5.27
2023-11-07T19:11:47.177Z,4.95
2023-11-07T19:14:14.262Z,5.45
2023-11-07T19:16:41.663Z,5.63
2023-11-07T19:19:08.195Z,5.60
2023-11-07T19:21:34.611Z,5.61
2023-11-07T19:24:01.151Z,5.61
2023-11-07T19:26:27.600Z,5.69
2023-11-07T19:28:55.258Z,5.49
2023-11-07T19:31:22.310Z,5.51
2023-11-07T19:33:50.898Z,5.67
2023-11-07T19:36:18.818Z,5.54
2023-11-07T19:38:46.058Z,5.62
2023-11-07T19:41:13.496Z,5.57
2023-11-07T19:43:43.099Z,5.60
2023-11-07T19:46:10.694Z,5.46
2023-11-07T19:48:44.352Z,5.47
2023-11-07T19:51:11.962Z,5.47
2023-11-07T19:53:38.377Z,5.22
2023-11-07T19:56:05.518Z,5.22
2023-11-07T19:58:32.977Z,5.38
2023-11-07T20:00:59.316Z,5.05
2023-11-07T20:03:29.403Z,5.20
2023-11-07T20:05:56.899Z,5.13
2023-11-07T20:08:29.563Z,5.27
2023-11-07T20:10:59.599Z,5.22
2023-11-07T20:13:26.023Z,5.28
2023-11-07T20:15:54.547Z,5.24
2023-11-07T20:18:21.212Z,5.31
2023-11-07T20:20:47.738Z,5.28
2023-11-07T20:23:14.185Z,5.26
2023-11-07T20:25:42.376Z,5.32
2023-11-07T20:28:08.785Z,5.34
2023-11-07T20:30:35.830Z,5.49
2023-11-07T20:33:07.142Z,5.38
2023-11-07T20:35:40.250Z,5.42
2023-11-07T20:38:08.683Z,5.59
2023-11-07T20:40:37.686Z,5.55
2023-11-07T20:43:05.323Z,4.78
2023-11-07T20:45:35.476Z,5.54
2023-11-07T20:48:02.550Z,5.42
2023-11-07T20:50:30.110Z,5.37
2023-11-07T20:52:56.662Z,5.44
2023-11-07T20:55:23.535Z,5.52
2023-11-07T20:57:55.379Z,5.67
2023-11-07T21:00:28.546Z,5.42
2023-11-07T21:02:57.123Z,5.47
2023-11-07T21:05:25.645Z,5.55
2023-11-07T21:07:53.246Z,5.30
2023-11-07T21:10:19.669Z,5.27
2023-11-07T21:12:46.042Z,5.36
2023-11-07T21:15:13.279Z,5.34
2023-11-07T21:17:41.586Z,5.23
2023-11-07T21:20:11.750Z,5.19
2023-11-07T21:22:41.165Z,5.34
2023-11-07T21:25:08.029Z,5.42
2023-11-07T21:27:38.556Z,5.32
2023-11-07T21:30:09.272Z,5.47
2023-11-07T21:32:35.958Z,5.39
2023-11-07T21:35:10.802Z,5.45
2023-11-07T21:37:38.511Z,5.36
2023-11-07T21:40:05.556Z,5.32
2023-11-07T21:42:31.986Z,5.26
2023-11-07T21:44:58.452Z,5.26
2023-11-07T21:47:25.486Z,5.29
2023-11-07T21:49:51.804Z,5.14
2023-11-07T21:52:18.324Z,5.24
2023-11-07T21:54:44.723Z,5.23
2023-11-07T21:57:12.242Z,5.21
2023-11-07T21:59:38.885Z,5.28
2023-11-07T22:02:05.359Z,5.28
2023-11-07T22:04:32.961Z,5.32
2023-11-07T22:06:59.401Z,5.42
2023-11-07T22:09:25.805Z,5.63
2023-11-07T22:11:52.388Z,5.40
2023-11-07T22:14:20.397Z,5.35
2023-11-07T22:16:46.803Z,5.43
2023-11-07T22:19:13.276Z,5.25
2023-11-07T22:21:39.856Z,5.30
2023-11-07T22:24:06.709Z,5.24
2023-11-07T22:26:33.110Z,5.23
2023-11-07T22:29:01.445Z,5.36
2023-11-07T22:31:28.077Z,5.30
2023-11-07T22:33:54.550Z,5.34
2023-11-07T22:36:21.399Z,5.26
2023-11-07T22:38:49.282Z,5.19
2023-11-07T22:41:15.709Z,5.16
2023-11-07T22:43:42.131Z,5.18
2023-11-07T22:46:08.635Z,5.14
2023-11-07T22:48:35.433Z,5.10
2023-11-07T22:51:02.608Z,5.09
2023-11-07T22:53:29.330Z,5.05
2023-11-07T22:55:57.535Z,4.82
2023-11-07T22:58:24.777Z,4.86
2023-11-07T23:00:51.297Z,4.83
2023-11-07T23:03:17.820Z,4.80
2023-11-07T23:05:49.494Z,5.03
2023-11-07T23:08:17.261Z,4.95
2023-11-07T23:10:44.016Z,4.90
2023-11-07T23:13:10.439Z,4.88
2023-11-07T23:15:40.060Z,4.94
2023-11-07T23:18:08.226Z,4.99
2023-11-07T23:20:36.500Z,4.86
2023-11-07T23:23:03.213Z,4.84
2023-11-07T23:25:29.565Z,4.76
2023-11-07T23:27:55.904Z,4.83
2023-11-07T23:30:22.426Z,4.83
2023-11-07T23:32:48.982Z,4.76
2023-11-07T23:35:15.447Z,4.75
2023-11-07T23:37:42.046Z,4.77
2023-11-07T23:40:11.829Z,4.80
2023-11-07T23:42:42.636Z,4.75
2023-11-07T23:45:09.566Z,4.49
2023-11-07T23:47:36.826Z,4.62
2023-11-07T23:50:04.221Z,4.65
2023-11-07T23:52:30.609Z,4.44
2023-11-07T23:54:57.886Z,4.35
2023-11-07T23:57:24.764Z,4.40
2023-11-07T23:59:53.956Z,4.45
